createdAt,value
2017-07-24T00:00:37.328Z,19.94
2017-07-24T00:01:17.904Z,19.86
2017-07-24T00:01:58.516Z,19.99
2017-07-24T00:02:39.097Z,19.99
2017-07-24T00:03:19.669Z,19.94
2017-07-24T00:04:00.245Z,19.89
2017-07-24T00:04:40.820Z,19.92
2017-07-24T00:05:21.397Z,20.03
2017-07-24T00:06:01.959Z,19.89
2017-07-24T00:06:42.529Z,19.94
2017-07-24T00:07:23.105Z,19.92
2017-07-24T00:08:03.668Z,19.88
2017-07-24T00:08:44.248Z,19.92
2017-07-24T00:09:24.823Z,19.89
2017-07-24T00:10:05.380Z,19.89
2017-07-24T00:10:45.946Z,19.88
2017-07-24T00:11:26.511Z,19.88
2017-07-24T00:12:07.090Z,19.82
2017-07-24T00:12:47.664Z,19.77
2017-07-24T00:13:28.232Z,19.84
2017-07-24T00:14:08.816Z,19.79
2017-07-24T00:14:49.391Z,19.81
2017-07-24T00:15:29.955Z,19.71
2017-07-24T00:16:10.524Z,19.86
2017-07-24T00:16:51.080Z,19.74
2017-07-24T00:17:31.656Z,19.76
2017-07-24T00:18:12.222Z,19.73
2017-07-24T00:18:52.790Z,19.84
2017-07-24T00:19:33.356Z,19.79
2017-07-24T00:20:13.933Z,19.76
2017-07-24T00:20:54.508Z,19.76
2017-07-24T00:21:35.095Z,19.59
2017-07-24T00:22:15.688Z,19.71
2017-07-24T00:22:56.240Z,19.76
2017-07-24T00:23:36.810Z,19.73
2017-07-24T00:24:17.392Z,19.67
2017-07-24T00:24:57.971Z,19.74
2017-07-24T00:25:38.552Z,19.71
2017-07-24T00:26:19.119Z,19.69
2017-07-24T00:26:59.691Z,19.76
2017-07-24T00:27:40.261Z,19.81
2017-07-24T00:28:20.827Z,19.73
2017-07-24T00:29:01.399Z,19.62
2017-07-24T00:29:41.955Z,19.79
2017-07-24T00:30:22.540Z,19.71
2017-07-24T00:31:03.130Z,19.69
2017-07-24T00:31:43.716Z,19.73
2017-07-24T00:32:24.282Z,19.77
2017-07-24T00:33:04.847Z,19.69
2017-07-24T00:33:45.414Z,19.66
2017-07-24T00:34:25.980Z,19.66
2017-07-24T00:35:06.579Z,19.62
2017-07-24T00:35:47.111Z,19.63
2017-07-24T00:36:27.683Z,19.67
2017-07-24T00:37:08.266Z,19.67
2017-07-24T00:37:48.840Z,19.64
2017-07-24T00:38:29.415Z,19.71
2017-07-24T00:39:10.010Z,19.66
2017-07-24T00:39:50.590Z,19.67
2017-07-24T00:40:31.167Z,19.67
2017-07-24T00:41:11.736Z,19.62
2017-07-24T00:41:52.308Z,19.66
2017-07-24T00:42:32.896Z,19.67
2017-07-24T00:43:13.491Z,19.56
2017-07-24T00:43:54.065Z,19.55
2017-07-24T00:44:34.634Z,19.59
2017-07-24T00:45:15.200Z,19.55
2017-07-24T00:45:55.776Z,19.59
2017-07-24T00:46:36.359Z,19.66
2017-07-24T00:47:16.921Z,19.59
2017-07-24T00:47:57.509Z,19.54
2017-07-24T00:48:38.105Z,19.52
2017-07-24T00:49:18.670Z,19.62
2017-07-24T00:49:59.284Z,19.62
2017-07-24T00:50:39.854Z,19.49
2017-07-24T00:51:20.423Z,19.59
2017-07-24T00:52:01.007Z,19.56
2017-07-24T00:52:41.579Z,19.49
2017-07-24T00:53:22.156Z,19.54
2017-07-24T00:54:02.782Z,19.54
2017-07-24T00:54:43.348Z,19.47
2017-07-24T00:55:23.932Z,19.55
2017-07-24T00:56:04.517Z,19.64
2017-07-24T00:56:45.094Z,19.49
2017-07-24T00:57:25.670Z,19.51
2017-07-24T00:58:06.232Z,19.58
2017-07-24T00:58:46.805Z,19.54
2017-07-24T00:59:27.373Z,19.64
2017-07-24T01:00:07.950Z,19.48
2017-07-24T01:00:48.515Z,19.52
2017-07-24T01:01:29.079Z,19.47
2017-07-24T01:02:09.656Z,19.47
2017-07-24T01:02:50.258Z,19.51
2017-07-24T01:03:30.848Z,19.51
2017-07-24T01:04:11.423Z,19.47
2017-07-24T01:04:52.057Z,19.49
2017-07-24T01:05:32.562Z,19.48
2017-07-24T01:06:13.136Z,19.44
2017-07-24T01:06:53.725Z,19.48
2017-07-24T01:07:34.291Z,19.4
2017-07-24T01:08:14.865Z,19.45
2017-07-24T01:08:55.460Z,19.47
2017-07-24T01:09:36.047Z,19.47
2017-07-24T01:10:16.620Z,19.47
2017-07-24T01:10:57.181Z,19.48
2017-07-24T01:11:37.766Z,19.41
2017-07-24T01:12:18.358Z,19.41
2017-07-24T01:12:58.926Z,19.36
2017-07-24T01:13:39.500Z,19.39
2017-07-24T01:14:20.104Z,19.44
2017-07-24T01:15:00.702Z,19.36
2017-07-24T01:15:41.261Z,19.34
2017-07-24T01:16:21.844Z,19.33
2017-07-24T01:17:02.408Z,19.34
2017-07-24T01:17:43.000Z,19.39
2017-07-24T01:18:23.538Z,19.34
2017-07-24T01:19:04.112Z,19.41
2017-07-24T01:19:44.668Z,19.36
2017-07-24T01:20:25.248Z,19.39
2017-07-24T01:21:05.846Z,19.37
2017-07-24T01:21:46.403Z,19.39
2017-07-24T01:22:26.974Z,19.4
2017-07-24T01:23:07.553Z,19.39
2017-07-24T01:23:48.120Z,19.31
2017-07-24T01:24:28.703Z,19.29
2017-07-24T01:25:09.291Z,19.41
2017-07-24T01:25:49.870Z,19.4
2017-07-24T01:26:30.442Z,19.3
2017-07-24T01:27:11.010Z,19.34
2017-07-24T01:27:51.585Z,19.39
2017-07-24T01:28:32.157Z,19.4
2017-07-24T01:29:12.754Z,19.34
2017-07-24T01:29:53.316Z,19.26
2017-07-24T01:30:33.892Z,19.39
2017-07-24T01:31:14.457Z,19.4
2017-07-24T01:31:55.022Z,19.37
2017-07-24T01:32:35.607Z,19.4
2017-07-24T01:33:16.177Z,19.31
2017-07-24T01:33:56.758Z,19.41
2017-07-24T01:34:37.362Z,19.37
2017-07-24T01:35:17.930Z,19.4
2017-07-24T01:35:58.508Z,19.31
2017-07-24T01:36:39.109Z,19.4
2017-07-24T01:37:19.671Z,19.29
2017-07-24T01:38:00.253Z,19.3
2017-07-24T01:38:40.865Z,19.41
2017-07-24T01:39:21.435Z,19.33
2017-07-24T01:40:02.009Z,19.3
2017-07-24T01:40:42.588Z,19.31
2017-07-24T01:41:23.167Z,19.37
2017-07-24T01:42:03.735Z,19.37
2017-07-24T01:42:44.313Z,19.3
2017-07-24T01:43:24.880Z,19.31
2017-07-24T01:44:05.453Z,19.36
2017-07-24T01:44:46.024Z,19.29
2017-07-24T01:45:26.590Z,19.26
2017-07-24T01:46:07.168Z,19.26
2017-07-24T01:46:47.741Z,19.29
2017-07-24T01:47:28.341Z,19.34
2017-07-24T01:48:08.922Z,19.36
2017-07-24T01:48:49.488Z,19.33
2017-07-24T01:49:30.065Z,19.18
2017-07-24T01:50:10.641Z,19.3
2017-07-24T01:50:51.206Z,19.29
2017-07-24T01:51:31.780Z,19.29
2017-07-24T01:52:12.470Z,19.29
2017-07-24T01:52:52.944Z,19.29
2017-07-24T01:53:33.517Z,19.29
2017-07-24T01:54:14.082Z,19.19
2017-07-24T01:54:54.669Z,19.29
2017-07-24T01:55:35.248Z,19.3
2017-07-24T01:56:15.839Z,19.29
2017-07-24T01:56:56.404Z,19.24
2017-07-24T01:57:36.998Z,19.26
2017-07-24T01:58:17.562Z,19.31
2017-07-24T01:58:58.164Z,19.29
2017-07-24T01:59:38.756Z,19.26
2017-07-24T02:00:19.343Z,19.3
2017-07-24T02:00:59.928Z,19.24
2017-07-24T02:01:40.510Z,19.31
2017-07-24T02:02:21.097Z,19.29
2017-07-24T02:03:01.664Z,19.29
2017-07-24T02:03:42.259Z,19.24
2017-07-24T02:04:22.850Z,19.3
2017-07-24T02:05:03.436Z,19.19
2017-07-24T02:05:44.030Z,19.31
2017-07-24T02:06:24.601Z,19.26
2017-07-24T02:07:05.216Z,19.19
2017-07-24T02:07:45.779Z,19.22
2017-07-24T02:08:26.375Z,19.29
2017-07-24T02:09:06.970Z,19.29
2017-07-24T02:09:47.530Z,19.18
2017-07-24T02:10:28.119Z,19.18
2017-07-24T02:11:08.700Z,19.31
2017-07-24T02:11:49.266Z,19.18
2017-07-24T02:12:29.834Z,19.19
2017-07-24T02:13:10.444Z,19.18
2017-07-24T02:13:51.018Z,19.19
2017-07-24T02:14:31.600Z,19.27
2017-07-24T02:15:12.161Z,19.26
2017-07-24T02:15:52.740Z,19.24
2017-07-24T02:16:33.306Z,19.3
2017-07-24T02:17:13.883Z,19.21
2017-07-24T02:17:54.493Z,19.21
2017-07-24T02:18:35.059Z,19.22
2017-07-24T02:19:15.635Z,19.31
2017-07-24T02:19:56.201Z,19.16
2017-07-24T02:20:36.761Z,19.16
2017-07-24T02:21:17.325Z,19.18
2017-07-24T02:21:57.916Z,19.33
2017-07-24T02:22:38.489Z,19.18
2017-07-24T02:23:19.055Z,19.21
2017-07-24T02:23:59.627Z,19.19
2017-07-24T02:24:40.204Z,19.27
2017-07-24T02:25:20.774Z,19.22
2017-07-24T02:26:01.349Z,19.22
2017-07-24T02:26:41.917Z,19.26
2017-07-24T02:27:22.500Z,19.27
2017-07-24T02:28:03.066Z,19.26
2017-07-24T02:28:43.630Z,19.26
2017-07-24T02:29:24.200Z,19.27
2017-07-24T02:30:04.789Z,19.26
2017-07-24T02:30:45.366Z,19.29
2017-07-24T02:31:25.933Z,19.26
2017-07-24T02:32:06.508Z,19.29
2017-07-24T02:32:47.060Z,19.29
2017-07-24T02:33:27.626Z,19.24
2017-07-24T02:34:08.211Z,19.26
2017-07-24T02:34:48.793Z,19.24
2017-07-24T02:35:29.364Z,19.26
2017-07-24T02:36:09.937Z,19.22
2017-07-24T02:36:50.507Z,19.22
2017-07-24T02:37:31.111Z,19.27
2017-07-24T02:38:11.678Z,19.19
2017-07-24T02:38:52.258Z,19.33
2017-07-24T02:39:32.837Z,19.24
2017-07-24T02:40:13.400Z,19.24
2017-07-24T02:40:53.976Z,19.22
2017-07-24T02:41:34.542Z,19.26
2017-07-24T02:42:15.113Z,19.29
2017-07-24T02:42:55.680Z,19.14
2017-07-24T02:43:36.253Z,19.27
2017-07-24T02:44:16.827Z,19.24
2017-07-24T02:44:57.392Z,19.29
2017-07-24T02:45:37.969Z,19.26
2017-07-24T02:46:18.556Z,19.3
2017-07-24T02:46:59.118Z,19.29
2017-07-24T02:47:39.687Z,19.27
2017-07-24T02:48:20.271Z,19.31
2017-07-24T02:49:00.878Z,19.22
2017-07-24T02:49:41.424Z,19.26
2017-07-24T02:50:22.007Z,19.29
2017-07-24T02:51:02.575Z,19.19
2017-07-24T02:51:43.166Z,19.26
2017-07-24T02:52:23.739Z,19.26
2017-07-24T02:53:04.297Z,19.16
2017-07-24T02:53:44.862Z,19.15
2017-07-24T02:54:25.433Z,19.24
2017-07-24T02:55:06.005Z,19.27
2017-07-24T02:55:46.568Z,19.21
2017-07-24T02:56:27.173Z,19.24
2017-07-24T02:57:07.736Z,19.16
2017-07-24T02:57:48.303Z,19.16
2017-07-24T02:58:28.879Z,19.16
2017-07-24T02:59:09.469Z,19.24
2017-07-24T02:59:50.042Z,19.18
2017-07-24T03:00:30.637Z,19.3
2017-07-24T03:01:11.213Z,19.16
2017-07-24T03:01:51.794Z,19.24
2017-07-24T03:02:32.373Z,19.18
2017-07-24T03:03:12.931Z,19.18
2017-07-24T03:03:53.497Z,19.18
2017-07-24T03:04:34.065Z,19.22
2017-07-24T03:05:14.632Z,19.18
2017-07-24T03:05:55.202Z,19.22
2017-07-24T03:06:35.779Z,19.26
2017-07-24T03:07:16.359Z,19.24
2017-07-24T03:07:56.984Z,19.22
2017-07-24T03:08:37.543Z,19.18
2017-07-24T03:09:18.112Z,19.33
2017-07-24T03:09:58.703Z,19.16
2017-07-24T03:10:39.281Z,19.27
2017-07-24T03:11:19.850Z,19.31
2017-07-24T03:12:00.425Z,19.26
2017-07-24T03:12:40.992Z,19.18
2017-07-24T03:13:21.562Z,19.26
2017-07-24T03:14:02.155Z,19.29
2017-07-24T03:14:42.725Z,19.24
2017-07-24T03:15:23.305Z,19.26
2017-07-24T03:16:03.903Z,19.24
2017-07-24T03:16:44.477Z,19.22
2017-07-24T03:17:25.046Z,19.19
2017-07-24T03:18:05.624Z,19.31
2017-07-24T03:18:46.204Z,19.22
2017-07-24T03:19:26.790Z,19.21
2017-07-24T03:20:07.375Z,19.18
2017-07-24T03:20:47.943Z,19.21
2017-07-24T03:21:28.513Z,19.15
2017-07-24T03:22:09.088Z,19.19
2017-07-24T03:22:49.662Z,19.21
2017-07-24T03:23:30.228Z,19.26
2017-07-24T03:24:10.803Z,19.21
2017-07-24T03:24:51.369Z,19.22
2017-07-24T03:25:31.945Z,19.18
2017-07-24T03:26:12.513Z,19.15
2017-07-24T03:26:53.084Z,19.19
2017-07-24T03:27:33.658Z,19.18
2017-07-24T03:28:14.224Z,19.19
2017-07-24T03:28:54.801Z,19.19
2017-07-24T03:29:35.378Z,19.12
2017-07-24T03:30:15.960Z,19.16
2017-07-24T03:30:56.531Z,19.14
2017-07-24T03:31:37.112Z,19.07
2017-07-24T03:32:17.669Z,19.12
2017-07-24T03:32:58.246Z,19.18
2017-07-24T03:33:38.812Z,19.04
2017-07-24T03:34:19.375Z,19.12
2017-07-24T03:34:59.944Z,19.08
2017-07-24T03:35:40.518Z,19.04
2017-07-24T03:36:21.087Z,19.07
2017-07-24T03:37:01.670Z,19.08
2017-07-24T03:37:42.265Z,19.09
2017-07-24T03:38:22.822Z,19.14
2017-07-24T03:39:03.410Z,19.04
2017-07-24T03:39:43.980Z,19.02
2017-07-24T03:40:24.544Z,19
2017-07-24T03:41:05.114Z,19.08
2017-07-24T03:41:45.701Z,19.04
2017-07-24T03:42:26.285Z,19.08
2017-07-24T03:43:06.847Z,19.07
2017-07-24T03:43:47.418Z,19
2017-07-24T03:44:27.983Z,19.09
2017-07-24T03:45:08.561Z,19
2017-07-24T03:45:49.176Z,19.08
2017-07-24T03:46:29.771Z,18.99
2017-07-24T03:47:10.329Z,18.99
2017-07-24T03:47:50.905Z,18.99
2017-07-24T03:48:31.538Z,19.07
2017-07-24T03:49:12.105Z,18.98
2017-07-24T03:49:52.682Z,19.07
2017-07-24T03:50:33.240Z,19.04
2017-07-24T03:51:13.833Z,19.02
2017-07-24T03:51:54.399Z,18.89
2017-07-24T03:52:34.971Z,18.93
2017-07-24T03:53:15.545Z,18.93
2017-07-24T03:53:56.162Z,18.9
2017-07-24T03:54:36.749Z,18.9
2017-07-24T03:55:17.319Z,19.04
2017-07-24T03:55:57.887Z,18.89
2017-07-24T03:56:38.475Z,18.9
2017-07-24T03:57:19.043Z,18.95
2017-07-24T03:57:59.624Z,18.95
2017-07-24T03:58:40.196Z,18.89
2017-07-24T03:59:20.761Z,18.98
2017-07-24T04:00:01.325Z,18.88
2017-07-24T04:00:41.911Z,18.89
2017-07-24T04:01:22.471Z,18.86
2017-07-24T04:02:03.044Z,18.86
2017-07-24T04:02:43.630Z,18.92
2017-07-24T04:03:24.212Z,18.9
2017-07-24T04:04:04.774Z,19
2017-07-24T04:04:45.345Z,18.88
2017-07-24T04:05:25.918Z,18.93
2017-07-24T04:06:06.490Z,18.89
2017-07-24T04:06:47.066Z,18.95
2017-07-24T04:07:27.655Z,18.88
2017-07-24T04:08:08.226Z,18.89
2017-07-24T04:08:48.792Z,18.96
2017-07-24T04:09:29.363Z,19.02
2017-07-24T04:10:09.954Z,18.89
2017-07-24T04:10:50.545Z,18.95
2017-07-24T04:11:31.137Z,18.99
2017-07-24T04:12:11.716Z,18.95
2017-07-24T04:12:52.300Z,19.04
2017-07-24T04:13:32.879Z,19.02
2017-07-24T04:14:13.472Z,19.02
2017-07-24T04:14:54.038Z,19.02
2017-07-24T04:15:34.601Z,19.07
2017-07-24T04:16:15.184Z,19.08
2017-07-24T04:16:55.747Z,19.08
2017-07-24T04:17:36.325Z,19
2017-07-24T04:18:16.907Z,19.08
2017-07-24T04:18:57.474Z,19.14
2017-07-24T04:19:38.074Z,19
2017-07-24T04:20:18.640Z,19.07
2017-07-24T04:20:59.210Z,19.16
2017-07-24T04:21:39.795Z,19.07
2017-07-24T04:22:20.365Z,19.18
2017-07-24T04:23:00.933Z,19.12
2017-07-24T04:23:41.540Z,19.18
2017-07-24T04:24:22.118Z,19.14
2017-07-24T04:25:02.686Z,19.22
2017-07-24T04:25:43.252Z,19.24
2017-07-24T04:26:23.822Z,19.18
2017-07-24T04:27:04.399Z,19.21
2017-07-24T04:27:44.964Z,19.18
2017-07-24T04:28:25.540Z,19.27
2017-07-24T04:29:06.116Z,19.29
2017-07-24T04:29:46.681Z,19.33
2017-07-24T04:30:27.277Z,19.3
2017-07-24T04:31:07.843Z,19.36
2017-07-24T04:31:48.411Z,19.36
2017-07-24T04:32:28.979Z,19.3
2017-07-24T04:33:09.551Z,19.29
2017-07-24T04:33:50.112Z,19.37
2017-07-24T04:34:30.698Z,19.41
2017-07-24T04:35:11.268Z,19.39
2017-07-24T04:35:51.863Z,19.44
2017-07-24T04:36:32.451Z,19.52
2017-07-24T04:37:13.048Z,19.49
2017-07-24T04:37:53.616Z,19.51
2017-07-24T04:38:34.187Z,19.62
2017-07-24T04:39:14.757Z,19.56
2017-07-24T04:39:55.349Z,19.67
2017-07-24T04:40:35.924Z,19.81
2017-07-24T04:41:16.536Z,19.86
2017-07-24T04:41:57.142Z,19.89
2017-07-24T04:42:37.710Z,19.92
2017-07-24T04:43:18.301Z,19.91
2017-07-24T04:43:58.888Z,19.92
2017-07-24T04:44:39.468Z,20
2017-07-24T04:45:20.059Z,20.06
2017-07-24T04:46:00.628Z,20.04
2017-07-24T04:46:41.206Z,20.06
2017-07-24T04:47:21.775Z,20.16
2017-07-24T04:48:02.357Z,20.13
2017-07-24T04:48:42.953Z,20.11
2017-07-24T04:49:23.550Z,20.29
2017-07-24T04:50:04.112Z,20.32
2017-07-24T04:50:44.691Z,20.22
2017-07-24T04:51:25.295Z,20.37
2017-07-24T04:52:05.857Z,20.29
2017-07-24T04:52:46.444Z,20.39
2017-07-24T04:53:27.039Z,20.31
2017-07-24T04:54:07.597Z,20.41
2017-07-24T04:54:48.172Z,20.44
2017-07-24T04:55:28.743Z,20.43
2017-07-24T04:56:09.299Z,20.5
2017-07-24T04:56:49.857Z,20.47
2017-07-24T04:57:30.429Z,20.58
2017-07-24T04:58:10.989Z,20.56
2017-07-24T04:58:51.562Z,20.62
2017-07-24T04:59:32.142Z,20.63
2017-07-24T05:00:12.715Z,20.59
2017-07-24T05:00:53.296Z,20.66
2017-07-24T05:01:33.877Z,20.6
2017-07-24T05:02:14.468Z,20.72
2017-07-24T05:02:55.057Z,20.66
2017-07-24T05:03:35.649Z,20.67
2017-07-24T05:04:16.211Z,20.7
2017-07-24T05:04:56.886Z,20.66
2017-07-24T05:05:37.433Z,20.7
2017-07-24T05:06:18.020Z,20.7
2017-07-24T05:06:58.592Z,20.66
2017-07-24T05:07:39.174Z,20.65
2017-07-24T05:08:19.806Z,20.75
2017-07-24T05:09:00.391Z,20.69
2017-07-24T05:09:40.982Z,20.75
2017-07-24T05:10:21.557Z,20.72
2017-07-24T05:11:02.120Z,20.84
2017-07-24T05:11:42.698Z,20.81
2017-07-24T05:12:23.269Z,20.85
2017-07-24T05:13:03.844Z,20.87
2017-07-24T05:13:44.412Z,20.72
2017-07-24T05:14:24.987Z,20.78
2017-07-24T05:15:05.566Z,20.87
2017-07-24T05:15:46.150Z,20.87
2017-07-24T05:16:26.746Z,20.93
2017-07-24T05:17:07.320Z,20.82
2017-07-24T05:17:47.878Z,20.82
2017-07-24T05:18:28.468Z,20.81
2017-07-24T05:19:09.048Z,20.84
2017-07-24T05:19:49.633Z,20.81
2017-07-24T05:20:30.257Z,20.78
2017-07-24T05:21:10.838Z,20.81
2017-07-24T05:21:51.427Z,20.82
2017-07-24T05:22:32.006Z,20.81
2017-07-24T05:23:12.583Z,20.84
2017-07-24T05:23:53.178Z,20.85
2017-07-24T05:24:33.772Z,20.87
2017-07-24T05:25:14.344Z,20.92
2017-07-24T05:25:54.965Z,20.97
2017-07-24T05:26:35.534Z,20.97
2017-07-24T05:27:16.096Z,20.82
2017-07-24T05:27:56.675Z,21.03
2017-07-24T05:28:37.300Z,20.92
2017-07-24T05:29:17.883Z,21.11
2017-07-24T05:29:58.464Z,21.07
2017-07-24T05:30:39.069Z,21.03
2017-07-24T05:31:19.640Z,21.05
2017-07-24T05:32:00.242Z,21.07
2017-07-24T05:32:40.850Z,21.09
2017-07-24T05:33:21.423Z,21.02
2017-07-24T05:34:01.992Z,21
2017-07-24T05:34:42.568Z,21.02
2017-07-24T05:35:23.143Z,21.14
2017-07-24T05:36:03.735Z,21.11
2017-07-24T05:36:44.319Z,21.12
2017-07-24T05:37:24.906Z,21.2
2017-07-24T05:38:05.517Z,21.12
2017-07-24T05:38:46.098Z,21.14
2017-07-24T05:39:26.686Z,21.07
2017-07-24T05:40:07.933Z,21.12
2017-07-24T05:40:48.497Z,21.07
2017-07-24T05:41:29.069Z,21.2
2017-07-24T05:42:09.645Z,21.12
2017-07-24T05:42:50.233Z,21.12
2017-07-24T05:43:30.808Z,21.14
2017-07-24T05:44:11.405Z,21.09
2017-07-24T05:44:51.984Z,21.14
2017-07-24T05:45:32.552Z,21.09
2017-07-24T05:46:13.120Z,21.11
2017-07-24T05:46:53.687Z,21.12
2017-07-24T05:47:34.286Z,21.09
2017-07-24T05:48:14.869Z,21.14
2017-07-24T05:48:55.431Z,21.18
2017-07-24T05:49:36.028Z,21.15
2017-07-24T05:50:16.590Z,21.15
2017-07-24T05:50:57.188Z,21.12
2017-07-24T05:51:37.831Z,21.15
2017-07-24T05:52:18.430Z,21.15
2017-07-24T05:52:59.147Z,21.09
2017-07-24T05:53:39.829Z,21.03
2017-07-24T05:54:20.441Z,21.09
2017-07-24T05:55:01.678Z,21.05
2017-07-24T05:55:42.323Z,21.2
2017-07-24T05:56:22.909Z,21.22
2017-07-24T05:57:03.496Z,21.12
2017-07-24T05:57:44.066Z,21.25
2017-07-24T05:58:24.870Z,21.2
2017-07-24T05:59:05.470Z,21.27
2017-07-24T05:59:46.037Z,21.29
2017-07-24T06:00:26.608Z,21.37
2017-07-24T06:01:07.167Z,21.33
2017-07-24T06:01:47.775Z,21.39
2017-07-24T06:02:28.375Z,21.42
2017-07-24T06:03:08.950Z,21.43
2017-07-24T06:03:49.531Z,21.48
2017-07-24T06:04:30.099Z,21.48
2017-07-24T06:05:10.680Z,21.5
2017-07-24T06:05:51.258Z,21.48
2017-07-24T06:06:31.839Z,21.67
2017-07-24T06:07:12.422Z,21.66
2017-07-24T06:07:53.017Z,21.82
2017-07-24T06:08:33.605Z,21.85
2017-07-24T06:09:14.184Z,21.93
2017-07-24T06:09:54.771Z,21.95
2017-07-24T06:10:35.361Z,22.07
2017-07-24T06:11:15.980Z,22.11
2017-07-24T06:11:56.614Z,22.13
2017-07-24T06:12:37.154Z,22.2
2017-07-24T06:13:17.731Z,22.3
2017-07-24T06:13:58.318Z,22.48
2017-07-24T06:14:38.893Z,22.41
2017-07-24T06:15:19.488Z,22.54
2017-07-24T06:16:00.151Z,22.57
2017-07-24T06:16:41.084Z,22.57
2017-07-24T06:17:21.676Z,22.66
2017-07-24T06:18:02.282Z,22.62
2017-07-24T06:18:42.892Z,22.66
2017-07-24T06:19:23.881Z,22.62
2017-07-24T06:20:04.495Z,22.6
2017-07-24T06:20:45.079Z,22.57
2017-07-24T06:21:25.682Z,22.48
2017-07-24T06:22:06.256Z,22.44
2017-07-24T06:22:46.833Z,22.45
2017-07-24T06:23:27.443Z,22.44
2017-07-24T06:24:08.009Z,22.35
2017-07-24T06:24:48.591Z,22.44
2017-07-24T06:25:29.169Z,22.32
2017-07-24T06:26:10.180Z,22.35
2017-07-24T06:26:51.059Z,22.47
2017-07-24T06:27:31.646Z,22.41
2017-07-24T06:28:12.626Z,22.39
2017-07-24T06:28:54.145Z,22.43
2017-07-24T06:29:34.805Z,22.38
2017-07-24T06:30:15.403Z,22.32
2017-07-24T06:30:56.793Z,22.39
2017-07-24T06:31:37.376Z,22.28
2017-07-24T06:32:17.955Z,22.38
2017-07-24T06:32:58.660Z,22.39
2017-07-24T06:33:39.232Z,22.43
2017-07-24T06:34:20.478Z,22.41
2017-07-24T06:35:01.086Z,22.44
2017-07-24T06:35:41.736Z,22.44
2017-07-24T06:36:22.325Z,22.45
2017-07-24T06:37:02.903Z,22.41
2017-07-24T06:37:43.484Z,22.45
2017-07-24T06:38:24.212Z,22.36
2017-07-24T06:39:04.820Z,22.47
2017-07-24T06:39:45.409Z,22.44
2017-07-24T06:40:26.064Z,22.45
2017-07-24T06:41:06.622Z,22.5
2017-07-24T06:41:47.204Z,22.47
2017-07-24T06:42:27.826Z,22.51
2017-07-24T06:43:08.399Z,22.54
2017-07-24T06:43:49.162Z,22.55
2017-07-24T06:44:29.734Z,22.5
2017-07-24T06:45:10.311Z,22.5
2017-07-24T06:45:50.941Z,22.5
2017-07-24T06:46:31.530Z,22.54
2017-07-24T06:47:12.117Z,22.6
2017-07-24T06:47:52.686Z,22.54
2017-07-24T06:48:33.290Z,22.53
2017-07-24T06:49:13.854Z,22.62
2017-07-24T06:49:54.435Z,22.55
2017-07-24T06:50:35.010Z,22.68
2017-07-24T06:51:15.586Z,22.62
2017-07-24T06:51:56.177Z,22.55
2017-07-24T06:52:36.762Z,22.66
2017-07-24T06:53:17.339Z,22.69
2017-07-24T06:53:57.923Z,22.68
2017-07-24T06:54:38.496Z,22.69
2017-07-24T06:55:19.078Z,22.59
2017-07-24T06:55:59.645Z,22.75
2017-07-24T06:56:40.263Z,22.87
2017-07-24T06:57:20.829Z,22.76
2017-07-24T06:58:02.216Z,22.83
2017-07-24T06:58:42.803Z,22.87
2017-07-24T06:59:23.392Z,22.9
2017-07-24T07:00:03.972Z,23
2017-07-24T07:00:44.556Z,23.03
2017-07-24T07:01:25.131Z,23.13
2017-07-24T07:02:05.707Z,23.15
2017-07-24T07:02:46.297Z,23.28
2017-07-24T07:03:26.885Z,23.27
2017-07-24T07:04:07.475Z,23.36
2017-07-24T07:04:48.068Z,23.37
2017-07-24T07:05:28.648Z,23.41
2017-07-24T07:06:09.241Z,23.5
2017-07-24T07:06:49.825Z,23.46
2017-07-24T07:07:30.442Z,23.48
2017-07-24T07:08:11.029Z,23.58
2017-07-24T07:08:51.628Z,23.66
2017-07-24T07:09:32.213Z,23.71
2017-07-24T07:10:12.784Z,23.77
2017-07-24T07:10:53.370Z,23.81
2017-07-24T07:11:33.989Z,23.86
2017-07-24T07:12:14.573Z,23.87
2017-07-24T07:12:55.184Z,23.95
2017-07-24T07:13:35.745Z,23.93
2017-07-24T07:14:16.368Z,23.99
2017-07-24T07:14:56.947Z,24.06
2017-07-24T07:15:37.576Z,24.13
2017-07-24T07:16:18.182Z,24.16
2017-07-24T07:16:58.763Z,24.11
2017-07-24T07:17:39.353Z,24.18
2017-07-24T07:18:19.968Z,24.26
2017-07-24T07:19:00.566Z,24.21
2017-07-24T07:19:41.142Z,24.23
2017-07-24T07:20:21.719Z,24.28
2017-07-24T07:21:02.297Z,24.26
2017-07-24T07:21:42.886Z,24.26
2017-07-24T07:22:23.507Z,24.3
2017-07-24T07:23:04.121Z,24.38
2017-07-24T07:23:44.711Z,24.36
2017-07-24T07:24:25.326Z,24.42
2017-07-24T07:25:05.913Z,24.47
2017-07-24T07:25:46.504Z,24.47
2017-07-24T07:26:27.103Z,24.43
2017-07-24T07:27:07.675Z,24.33
2017-07-24T07:27:48.249Z,24.36
2017-07-24T07:28:28.844Z,24.35
2017-07-24T07:29:09.418Z,24.3
2017-07-24T07:29:49.996Z,24.32
2017-07-24T07:30:30.564Z,24.32
2017-07-24T07:31:11.205Z,24.29
2017-07-24T07:31:51.806Z,24.32
2017-07-24T07:32:32.386Z,24.47
2017-07-24T07:33:13.244Z,24.5
2017-07-24T07:33:54.603Z,24.39
2017-07-24T07:34:35.460Z,24.6
2017-07-24T07:35:16.082Z,24.61
2017-07-24T07:35:56.666Z,24.63
2017-07-24T07:36:37.262Z,24.7
2017-07-24T07:37:17.833Z,24.86
2017-07-24T07:37:58.414Z,24.84
2017-07-24T07:38:39.014Z,24.96
2017-07-24T07:39:19.590Z,24.91
2017-07-24T07:40:00.169Z,25.03
2017-07-24T07:40:40.770Z,25.08
2017-07-24T07:41:21.368Z,25.16
2017-07-24T07:42:01.979Z,25.22
2017-07-24T07:42:42.652Z,25.31
2017-07-24T07:43:23.240Z,25.36
2017-07-24T07:44:03.868Z,25.41
2017-07-24T07:44:44.437Z,25.48
2017-07-24T07:45:25.035Z,25.4
2017-07-24T07:46:05.684Z,25.6
2017-07-24T07:46:46.259Z,25.55
2017-07-24T07:47:26.853Z,25.66
2017-07-24T07:48:07.467Z,25.69
2017-07-24T07:48:48.054Z,25.7
2017-07-24T07:49:28.667Z,25.7
2017-07-24T07:50:09.277Z,25.7
2017-07-24T07:50:49.882Z,25.78
2017-07-24T07:51:30.856Z,25.81
2017-07-24T07:52:11.595Z,25.77
2017-07-24T07:52:52.271Z,25.84
2017-07-24T07:53:32.862Z,25.81
2017-07-24T07:54:13.449Z,25.85
2017-07-24T07:54:54.026Z,25.73
2017-07-24T07:55:34.691Z,25.8
2017-07-24T07:56:15.511Z,25.66
2017-07-24T07:56:56.840Z,25.75
2017-07-24T07:57:37.542Z,25.66
2017-07-24T07:58:18.137Z,25.73
2017-07-24T07:58:58.734Z,25.7
2017-07-24T07:59:39.509Z,25.69
2017-07-24T08:00:20.468Z,25.73
2017-07-24T08:01:01.338Z,25.69
2017-07-24T08:01:42.268Z,25.72
2017-07-24T08:02:24.779Z,25.7
2017-07-24T08:03:05.407Z,25.88
2017-07-24T08:03:45.991Z,25.87
2017-07-24T08:04:26.585Z,25.91
2017-07-24T08:05:07.172Z,25.88
2017-07-24T08:05:47.754Z,25.91
2017-07-24T08:06:28.886Z,25.96
2017-07-24T08:07:10.313Z,25.93
2017-07-24T08:07:51.205Z,25.95
2017-07-24T08:08:32.106Z,26
2017-07-24T08:09:13.032Z,26.02
2017-07-24T08:09:53.676Z,26.02
2017-07-24T08:10:34.242Z,25.98
2017-07-24T08:11:15.060Z,25.98
2017-07-24T08:11:55.791Z,25.91
2017-07-24T08:12:36.828Z,25.99
2017-07-24T08:13:17.430Z,25.9
2017-07-24T08:13:58.563Z,25.88
2017-07-24T08:14:39.164Z,25.83
2017-07-24T08:15:19.731Z,25.95
2017-07-24T08:16:00.303Z,25.88
2017-07-24T08:16:40.883Z,25.9
2017-07-24T08:17:21.452Z,25.9
2017-07-24T08:18:02.030Z,26
2017-07-24T08:18:42.655Z,25.95
2017-07-24T08:19:23.249Z,25.96
2017-07-24T08:20:03.843Z,26.05
2017-07-24T08:20:44.593Z,26.1
2017-07-24T08:21:25.069Z,26.06
2017-07-24T08:22:05.631Z,26.18
2017-07-24T08:22:46.308Z,26.21
2017-07-24T08:23:26.907Z,26.16
2017-07-24T08:24:08.164Z,26.13
2017-07-24T08:24:49.146Z,26.16
2017-07-24T08:25:31.405Z,26.25
2017-07-24T08:26:13.109Z,26.28
2017-07-24T08:26:53.964Z,26.25
2017-07-24T08:27:35.246Z,26.21
2017-07-24T08:28:15.823Z,26.19
2017-07-24T08:28:56.436Z,26.18
2017-07-24T08:29:38.483Z,26.19
2017-07-24T08:30:19.514Z,26.18
2017-07-24T08:31:00.680Z,26.21
2017-07-24T08:31:42.512Z,26.23
2017-07-24T08:32:24.061Z,26.16
2017-07-24T08:33:04.931Z,26.23
2017-07-24T08:33:45.869Z,26.28
2017-07-24T08:34:29.063Z,26.29
2017-07-24T08:35:10.123Z,26.33
2017-07-24T08:35:51.098Z,26.37
2017-07-24T08:36:32.506Z,26.37
2017-07-24T08:37:13.658Z,26.37
2017-07-24T08:37:54.246Z,26.48
2017-07-24T08:38:34.845Z,26.36
2017-07-24T08:39:15.584Z,26.37
2017-07-24T08:39:56.517Z,26.26
2017-07-24T08:40:37.497Z,26.29
2017-07-24T08:41:18.442Z,26.23
2017-07-24T08:41:59.131Z,26.16
2017-07-24T08:42:39.708Z,26.13
2017-07-24T08:43:20.297Z,26.15
2017-07-24T08:44:01.228Z,26.03
2017-07-24T08:44:42.138Z,25.96
2017-07-24T08:45:23.139Z,25.84